sensor_id;sensor_type;location;lat;lon;timestamp;P1;durP1;ratioP1;P2;durP2;ratioP2
46589;SDS011;32313;48.722;9.362;2023-02-12T00:01:29;37.00;;;32.67;;
46589;SDS011;32313;48.722;9.362;2023-02-12T00:03:55;37.50;;;33.50;;
46589;SDS011;32313;48.722;9.362;2023-02-12T00:06:21;38.23;;;33.53;;
46589;SDS011;32313;48.722;9.362;2023-02-12T00:08:48;42.60;;;34.33;;
46589;SDS011;32313;48.722;9.362;2023-02-12T00:11:16;39.90;;;33.07;;
46589;SDS011;32313;48.722;9.362;2023-02-12T00:13:43;36.87;;;32.73;;
46589;SDS011;32313;48.722;9.362;2023-02-12T00:16:10;38.37;;;34.20;;
46589;SDS011;32313;48.722;9.362;2023-02-12T00:18:37;42.33;;;35.07;;
46589;SDS011;32313;48.722;9.362;2023-02-12T00:21:03;37.07;;;32.00;;
46589;SDS011;32313;48.722;9.362;2023-02-12T00:23:30;39.30;;;33.67;;
46589;SDS011;32313;48.722;9.362;2023-02-12T00:25:56;41.37;;;35.50;;
46589;SDS011;32313;48.722;9.362;2023-02-12T00:28:21;36.47;;;31.67;;
46589;SDS011;32313;48.722;9.362;2023-02-12T00:30:47;37.47;;;32.93;;
46589;SDS011;32313;48.722;9.362;2023-02-12T00:33:16;37.27;;;33.23;;
46589;SDS011;32313;48.722;9.362;2023-02-12T00:35:43;41.73;;;33.47;;
46589;SDS011;32313;48.722;9.362;2023-02-12T00:38:09;39.47;;;33.47;;
46589;SDS011;32313;48.722;9.362;2023-02-12T00:40:35;38.70;;;32.57;;
46589;SDS011;32313;48.722;9.362;2023-02-12T00:43:02;39.87;;;34.70;;
46589;SDS011;32313;48.722;9.362;2023-02-12T00:45:27;38.13;;;33.83;;
46589;SDS011;32313;48.722;9.362;2023-02-12T00:47:53;40.80;;;34.30;;
46589;SDS011;32313;48.722;9.362;2023-02-12T00:50:18;37.83;;;31.73;;
46589;SDS011;32313;48.722;9.362;2023-02-12T00:52:44;38.50;;;34.07;;
46589;SDS011;32313;48.722;9.362;2023-02-12T00:55:10;39.60;;;34.60;;
46589;SDS011;32313;48.722;9.362;2023-02-12T00:57:35;39.10;;;33.77;;
46589;SDS011;32313;48.722;9.362;2023-02-12T01:00:01;37.40;;;33.43;;
46589;SDS011;32313;48.722;9.362;2023-02-12T01:02:28;34.13;;;30.43;;
46589;SDS011;32313;48.722;9.362;2023-02-12T01:04:53;40.20;;;35.80;;
46589;SDS011;32313;48.722;9.362;2023-02-12T01:07:22;38.93;;;34.77;;
46589;SDS011;32313;48.722;9.362;2023-02-12T01:09:49;45.20;;;37.60;;
46589;SDS011;32313;48.722;9.362;2023-02-12T01:12:14;39.43;;;34.17;;
46589;SDS011;32313;48.722;9.362;2023-02-12T01:14:40;37.10;;;32.27;;
46589;SDS011;32313;48.722;9.362;2023-02-12T01:17:07;37.50;;;33.03;;
46589;SDS011;32313;48.722;9.362;2023-02-12T01:19:33;38.40;;;32.30;;
46589;SDS011;32313;48.722;9.362;2023-02-12T01:21:59;39.80;;;35.10;;
46589;SDS011;32313;48.722;9.362;2023-02-12T01:24:24;35.90;;;32.07;;
46589;SDS011;32313;48.722;9.362;2023-02-12T01:26:50;38.03;;;33.87;;
46589;SDS011;32313;48.722;9.362;2023-02-12T01:29:15;40.03;;;34.90;;
46589;SDS011;32313;48.722;9.362;2023-02-12T01:31:41;37.47;;;32.33;;
46589;SDS011;32313;48.722;9.362;2023-02-12T01:34:07;40.40;;;34.27;;
46589;SDS011;32313;48.722;9.362;2023-02-12T01:36:34;37.37;;;33.27;;
46589;SDS011;32313;48.722;9.362;2023-02-12T01:39:00;35.60;;;31.80;;
46589;SDS011;32313;48.722;9.362;2023-02-12T01:41:44;36.63;;;31.67;;
46589;SDS011;32313;48.722;9.362;2023-02-12T01:44:12;37.17;;;33.13;;
46589;SDS011;32313;48.722;9.362;2023-02-12T01:46:44;40.17;;;33.83;;
46589;SDS011;32313;48.722;9.362;2023-02-12T01:49:20;38.40;;;34.37;;
46589;SDS011;32313;48.722;9.362;2023-02-12T01:52:29;40.77;;;34.17;;
46589;SDS011;32313;48.722;9.362;2023-02-12T01:54:53;44.33;;;35.40;;
46589;SDS011;32313;48.722;9.362;2023-02-12T01:57:23;40.43;;;34.90;;
46589;SDS011;32313;48.722;9.362;2023-02-12T01:59:51;36.60;;;32.37;;
46589;SDS011;32313;48.722;9.362;2023-02-12T02:02:18;40.10;;;33.63;;
46589;SDS011;32313;48.722;9.362;2023-02-12T02:04:50;37.43;;;33.27;;
46589;SDS011;32313;48.722;9.362;2023-02-12T02:07:20;40.97;;;32.80;;
46589;SDS011;32313;48.722;9.362;2023-02-12T02:09:45;40.53;;;34.63;;
46589;SDS011;32313;48.722;9.362;2023-02-12T02:12:11;38.67;;;32.97;;
46589;SDS011;32313;48.722;9.362;2023-02-12T02:14:57;40.70;;;36.27;;
46589;SDS011;32313;48.722;9.362;2023-02-12T02:29:09;38.10;;;32.40;;
46589;SDS011;32313;48.722;9.362;2023-02-12T02:31:45;34.50;;;30.90;;
46589;SDS011;32313;48.722;9.362;2023-02-12T02:34:26;42.80;;;33.67;;
46589;SDS011;32313;48.722;9.362;2023-02-12T02:37:03;38.13;;;31.77;;
46589;SDS011;32313;48.722;9.362;2023-02-12T02:39:50;35.60;;;31.80;;
46589;SDS011;32313;48.722;9.362;2023-02-12T02:42:36;37.37;;;33.37;;
46589;SDS011;32313;48.722;9.362;2023-02-12T02:45:08;38.13;;;32.20;;
46589;SDS011;32313;48.722;9.362;2023-02-12T02:47:48;41.07;;;35.30;;
46589;SDS011;32313;48.722;9.362;2023-02-12T02:50:22;42.87;;;35.07;;
46589;SDS011;32313;48.722;9.362;2023-02-12T02:53:05;38.33;;;33.27;;
46589;SDS011;32313;48.722;9.362;2023-02-12T02:55:43;36.77;;;32.73;;
46589;SDS011;32313;48.722;9.362;2023-02-12T02:58:15;36.17;;;32.10;;
46589;SDS011;32313;48.722;9.362;2023-02-12T03:00:44;37.17;;;32.00;;
46589;SDS011;32313;48.722;9.362;2023-02-12T03:03:33;34.87;;;31.03;;
46589;SDS011;32313;48.722;9.362;2023-02-12T03:06:06;37.17;;;33.30;;
46589;SDS011;32313;48.722;9.362;2023-02-12T03:08:48;36.57;;;32.03;;
46589;SDS011;32313;48.722;9.362;2023-02-12T03:11:21;37.50;;;33.47;;
46589;SDS011;32313;48.722;9.362;2023-02-12T03:16:30;38.10;;;34.20;;
46589;SDS011;32313;48.722;9.362;2023-02-12T03:19:04;41.13;;;34.27;;
46589;SDS011;32313;48.722;9.362;2023-02-12T03:21:45;37.07;;;32.97;;
46589;SDS011;32313;48.722;9.362;2023-02-12T03:24:40;38.93;;;34.60;;
46589;SDS011;32313;48.722;9.362;2023-02-12T03:27:17;37.53;;;32.23;;
46589;SDS011;32313;48.722;9.362;2023-02-12T03:29:53;38.50;;;34.43;;
46589;SDS011;32313;48.722;9.362;2023-02-12T03:45:33;36.00;;;32.17;;
46589;SDS011;32313;48.722;9.362;2023-02-12T03:53:27;38.67;;;33.70;;
46589;SDS011;32313;48.722;9.362;2023-02-12T03:55:56;38.47;;;33.83;;
46589;SDS011;32313;48.722;9.362;2023-02-12T03:58:34;38.23;;;34.07;;
46589;SDS011;32313;48.722;9.362;2023-02-12T04:01:01;38.57;;;33.03;;
46589;SDS011;32313;48.722;9.362;2023-02-12T04:03:28;38.83;;;32.90;;
46589;SDS011;32313;48.722;9.362;2023-02-12T04:05:54;38.90;;;32.83;;
46589;SDS011;32313;48.722;9.362;2023-02-12T04:08:20;37.17;;;33.17;;
46589;SDS011;32313;48.722;9.362;2023-02-12T04:13:47;37.87;;;32.33;;
46589;SDS011;32313;48.722;9.362;2023-02-12T04:19:39;36.67;;;32.80;;
46589;SDS011;32313;48.722;9.362;2023-02-12T04:22:57;37.63;;;32.40;;
46589;SDS011;32313;48.722;9.362;2023-02-12T04:27:58;37.23;;;33.27;;
46589;SDS011;32313;48.722;9.362;2023-02-12T04:30:58;37.20;;;33.27;;
46589;SDS011;32313;48.722;9.362;2023-02-12T04:33:33;36.87;;;32.87;;
46589;SDS011;32313;48.722;9.362;2023-02-12T04:36:15;36.67;;;32.87;;
46589;SDS011;32313;48.722;9.362;2023-02-12T04:39:08;37.90;;;33.57;;
46589;SDS011;32313;48.722;9.362;2023-02-12T04:41:39;41.80;;;33.97;;
46589;SDS011;32313;48.722;9.362;2023-02-12T04:44:14;37.53;;;33.50;;
46589;SDS011;32313;48.722;9.362;2023-02-12T04:46:47;35.23;;;31.50;;
46589;SDS011;32313;48.722;9.362;2023-02-12T04:49:14;39.40;;;31.83;;
46589;SDS011;32313;48.722;9.362;2023-02-12T04:51:41;39.57;;;33.00;;
46589;SDS011;32313;48.722;9.362;2023-02-12T04:54:07;35.37;;;31.53;;
46589;SDS011;32313;48.722;9.362;2023-02-12T04:56:33;36.60;;;32.63;;
46589;SDS011;32313;48.722;9.362;2023-02-12T04:58:58;37.33;;;33.07;;
46589;SDS011;32313;48.722;9.362;2023-02-12T05:01:24;33.20;;;29.63;;
46589;SDS011;32313;48.722;9.362;2023-02-12T05:03:50;35.50;;;31.77;;
46589;SDS011;32313;48.722;9.362;2023-02-12T05:06:16;42.30;;;34.97;;
46589;SDS011;32313;48.722;9.362;2023-02-12T05:08:42;38.17;;;33.07;;
46589;SDS011;32313;48.722;9.362;2023-02-12T05:11:08;37.77;;;33.77;;
46589;SDS011;32313;48.722;9.362;2023-02-12T05:13:35;38.57;;;33.33;;
46589;SDS011;32313;48.722;9.362;2023-02-12T05:16:05;35.90;;;32.03;;
46589;SDS011;32313;48.722;9.362;2023-02-12T05:18:32;40.50;;;34.80;;
46589;SDS011;32313;48.722;9.362;2023-02-12T05:20:59;37.17;;;32.93;;
46589;SDS011;32313;48.722;9.362;2023-02-12T05:23:27;39.77;;;34.10;;
46589;SDS011;32313;48.722;9.362;2023-02-12T05:26:02;37.00;;;32.87;;
46589;SDS011;32313;48.722;9.362;2023-02-12T05:28:30;38.13;;;33.97;;
46589;SDS011;32313;48.722;9.362;2023-02-12T05:31:00;37.27;;;33.23;;
46589;SDS011;32313;48.722;9.362;2023-02-12T05:33:27;35.87;;;31.20;;
46589;SDS011;32313;48.722;9.362;2023-02-12T05:35:53;37.93;;;33.67;;
46589;SDS011;32313;48.722;9.362;2023-02-12T05:38:19;35.73;;;31.87;;
46589;SDS011;32313;48.722;9.362;2023-02-12T05:40:46;36.10;;;32.40;;
46589;SDS011;32313;48.722;9.362;2023-02-12T05:43:11;34.53;;;30.60;;
46589;SDS011;32313;48.722;9.362;2023-02-12T05:45:37;38.50;;;32.37;;
46589;SDS011;32313;48.722;9.362;2023-02-12T05:48:05;36.57;;;32.67;;
46589;SDS011;32313;48.722;9.362;2023-02-12T05:50:31;37.30;;;32.80;;
46589;SDS011;32313;48.722;9.362;2023-02-12T05:53:06;35.57;;;31.83;;
46589;SDS011;32313;48.722;9.362;2023-02-12T05:55:32;43.83;;;34.87;;
46589;SDS011;32313;48.722;9.362;2023-02-12T05:57:57;35.37;;;31.73;;
46589;SDS011;32313;48.722;9.362;2023-02-12T06:00:23;38.10;;;33.07;;
46589;SDS011;32313;48.722;9.362;2023-02-12T06:02:49;36.47;;;32.40;;
46589;SDS011;32313;48.722;9.362;2023-02-12T06:05:14;36.60;;;32.10;;
46589;SDS011;32313;48.722;9.362;2023-02-12T06:07:40;36.47;;;30.90;;
46589;SDS011;32313;48.722;9.362;2023-02-12T06:10:06;36.93;;;32.00;;
46589;SDS011;32313;48.722;9.362;2023-02-12T06:12:32;37.80;;;31.97;;
46589;SDS011;32313;48.722;9.362;2023-02-12T06:14:58;35.37;;;31.60;;
46589;SDS011;32313;48.722;9.362;2023-02-12T06:17:23;38.87;;;34.70;;
46589;SDS011;32313;48.722;9.362;2023-02-12T06:19:49;36.20;;;31.93;;
46589;SDS011;32313;48.722;9.362;2023-02-12T06:22:17;35.57;;;31.80;;
46589;SDS011;32313;48.722;9.362;2023-02-12T06:24:43;38.10;;;33.07;;
46589;SDS011;32313;48.722;9.362;2023-02-12T06:27:08;35.53;;;31.53;;
46589;SDS011;32313;48.722;9.362;2023-02-12T06:29:34;40.47;;;34.30;;
46589;SDS011;32313;48.722;9.362;2023-02-12T06:32:00;38.10;;;30.23;;
46589;SDS011;32313;48.722;9.362;2023-02-12T06:34:25;38.10;;;33.97;;
46589;SDS011;32313;48.722;9.362;2023-02-12T06:36:51;36.37;;;32.60;;
46589;SDS011;32313;48.722;9.362;2023-02-12T06:39:17;38.20;;;30.00;;
46589;SDS011;32313;48.722;9.362;2023-02-12T06:41:43;36.23;;;30.30;;
46589;SDS011;32313;48.722;9.362;2023-02-12T06:44:09;32.33;;;28.93;;
46589;SDS011;32313;48.722;9.362;2023-02-12T06:46:36;33.80;;;30.23;;
46589;SDS011;32313;48.722;9.362;2023-02-12T06:49:02;36.13;;;32.33;;
46589;SDS011;32313;48.722;9.362;2023-02-12T06:51:28;35.60;;;31.70;;
46589;SDS011;32313;48.722;9.362;2023-02-12T06:53:55;37.23;;;32.53;;
46589;SDS011;32313;48.722;9.362;2023-02-12T06:56:25;38.43;;;32.53;;
46589;SDS011;32313;48.722;9.362;2023-02-12T06:58:52;38.27;;;32.20;;
46589;SDS011;32313;48.722;9.362;2023-02-12T07:01:20;38.50;;;32.93;;
46589;SDS011;32313;48.722;9.362;2023-02-12T07:03:49;38.67;;;34.53;;
46589;SDS011;32313;48.722;9.362;2023-02-12T07:06:17;40.43;;;34.87;;
46589;SDS011;32313;48.722;9.362;2023-02-12T07:08:44;37.43;;;33.33;;
46589;SDS011;32313;48.722;9.362;2023-02-12T07:11:09;38.87;;;34.53;;
46589;SDS011;32313;48.722;9.362;2023-02-12T07:13:35;36.40;;;32.47;;
46589;SDS011;32313;48.722;9.362;2023-02-12T07:16:04;37.13;;;31.40;;
46589;SDS011;32313;48.722;9.362;2023-02-12T07:18:34;36.63;;;32.83;;
46589;SDS011;32313;48.722;9.362;2023-02-12T07:21:01;34.23;;;30.63;;
46589;SDS011;32313;48.722;9.362;2023-02-12T07:23:27;40.60;;;35.23;;
46589;SDS011;32313;48.722;9.362;2023-02-12T07:25:57;36.70;;;32.73;;
46589;SDS011;32313;48.722;9.362;2023-02-12T07:28:23;36.80;;;32.90;;
46589;SDS011;32313;48.722;9.362;2023-02-12T07:30:50;40.70;;;35.00;;
46589;SDS011;32313;48.722;9.362;2023-02-12T07:33:15;36.67;;;32.03;;
46589;SDS011;32313;48.722;9.362;2023-02-12T07:35:41;40.80;;;36.40;;
46589;SDS011;32313;48.722;9.362;2023-02-12T07:38:07;40.10;;;34.53;;
46589;SDS011;32313;48.722;9.362;2023-02-12T07:40:33;41.13;;;33.80;;
46589;SDS011;32313;48.722;9.362;2023-02-12T07:42:58;38.70;;;34.70;;
46589;SDS011;32313;48.722;9.362;2023-02-12T07:45:24;36.47;;;32.47;;
46589;SDS011;32313;48.722;9.362;2023-02-12T07:47:50;34.70;;;30.93;;
46589;SDS011;32313;48.722;9.362;2023-02-12T07:50:16;39.03;;;33.20;;
46589;SDS011;32313;48.722;9.362;2023-02-12T07:52:41;38.00;;;31.93;;
46589;SDS011;32313;48.722;9.362;2023-02-12T07:55:07;40.03;;;35.43;;
46589;SDS011;32313;48.722;9.362;2023-02-12T07:57:34;37.83;;;32.53;;
46589;SDS011;32313;48.722;9.362;2023-02-12T08:00:00;36.77;;;32.03;;
46589;SDS011;32313;48.722;9.362;2023-02-12T08:02:25;32.83;;;29.37;;
46589;SDS011;32313;48.722;9.362;2023-02-12T08:04:57;35.97;;;32.07;;
46589;SDS011;32313;48.722;9.362;2023-02-12T08:07:23;36.10;;;31.57;;
46589;SDS011;32313;48.722;9.362;2023-02-12T08:09:50;35.17;;;31.33;;
46589;SDS011;32313;48.722;9.362;2023-02-12T08:12:16;37.60;;;33.57;;
46589;SDS011;32313;48.722;9.362;2023-02-12T08:14:42;34.93;;;31.27;;
46589;SDS011;32313;48.722;9.362;2023-02-12T08:17:08;36.57;;;31.57;;
46589;SDS011;32313;48.722;9.362;2023-02-12T08:19:37;33.50;;;29.50;;
46589;SDS011;32313;48.722;9.362;2023-02-12T08:22:03;34.50;;;30.90;;
46589;SDS011;32313;48.722;9.362;2023-02-12T08:24:30;34.50;;;30.63;;
46589;SDS011;32313;48.722;9.362;2023-02-12T08:26:56;35.50;;;31.93;;
46589;SDS011;32313;48.722;9.362;2023-02-12T08:29:23;33.30;;;29.53;;
46589;SDS011;32313;48.722;9.362;2023-02-12T08:31:55;37.77;;;33.83;;
46589;SDS011;32313;48.722;9.362;2023-02-12T08:34:24;38.10;;;34.07;;
46589;SDS011;32313;48.722;9.362;2023-02-12T08:36:51;37.00;;;32.97;;
46589;SDS011;32313;48.722;9.362;2023-02-12T08:39:18;38.07;;;34.10;;
46589;SDS011;32313;48.722;9.362;2023-02-12T08:41:45;37.13;;;32.87;;
46589;SDS011;32313;48.722;9.362;2023-02-12T08:44:12;41.30;;;36.70;;
46589;SDS011;32313;48.722;9.362;2023-02-12T08:46:41;35.77;;;31.87;;
46589;SDS011;32313;48.722;9.362;2023-02-12T08:49:14;42.40;;;37.23;;
46589;SDS011;32313;48.722;9.362;2023-02-12T08:51:46;37.87;;;33.77;;
46589;SDS011;32313;48.722;9.362;2023-02-12T08:54:14;41.07;;;34.83;;
46589;SDS011;32313;48.722;9.362;2023-02-12T08:56:48;41.37;;;33.83;;
46589;SDS011;32313;48.722;9.362;2023-02-12T08:59:14;37.53;;;33.20;;
46589;SDS011;32313;48.722;9.362;2023-02-12T09:01:41;37.90;;;33.67;;
46589;SDS011;32313;48.722;9.362;2023-02-12T09:04:10;40.80;;;34.00;;
46589;SDS011;32313;48.722;9.362;2023-02-12T09:06:42;41.73;;;36.40;;
46589;SDS011;32313;48.722;9.362;2023-02-12T09:09:09;38.50;;;33.93;;
46589;SDS011;32313;48.722;9.362;2023-02-12T09:11:34;40.57;;;35.70;;
46589;SDS011;32313;48.722;9.362;2023-02-12T09:14:03;36.93;;;32.93;;
46589;SDS011;32313;48.722;9.362;2023-02-12T09:16:31;39.60;;;34.43;;
46589;SDS011;32313;48.722;9.362;2023-02-12T09:18:58;42.30;;;35.90;;
46589;SDS011;32313;48.722;9.362;2023-02-12T09:21:24;35.77;;;31.87;;
46589;SDS011;32313;48.722;9.362;2023-02-12T09:23:50;39.97;;;34.83;;
46589;SDS011;32313;48.722;9.362;2023-02-12T09:26:17;39.70;;;34.50;;
46589;SDS011;32313;48.722;9.362;2023-02-12T09:28:48;35.37;;;31.57;;
46589;SDS011;32313;48.722;9.362;2023-02-12T09:31:18;35.83;;;31.63;;
46589;SDS011;32313;48.722;9.362;2023-02-12T09:33:50;35.10;;;31.40;;
46589;SDS011;32313;48.722;9.362;2023-02-12T09:36:21;39.87;;;34.00;;
46589;SDS011;32313;48.722;9.362;2023-02-12T09:38:48;35.27;;;29.17;;
46589;SDS011;32313;48.722;9.362;2023-02-12T09:46:33;33.23;;;29.27;;
46589;SDS011;32313;48.722;9.362;2023-02-12T09:52:03;28.83;;;24.93;;
46589;SDS011;32313;48.722;9.362;2023-02-12T09:54:33;27.33;;;23.37;;
46589;SDS011;32313;48.722;9.362;2023-02-12T09:57:04;16.73;;;15.07;;
46589;SDS011;32313;48.722;9.362;2023-02-12T09:59:37;14.40;;;12.97;;
46589;SDS011;32313;48.722;9.362;2023-02-12T10:02:11;15.93;;;14.23;;
46589;SDS011;32313;48.722;9.362;2023-02-12T10:04:40;15.07;;;13.57;;
46589;SDS011;32313;48.722;9.362;2023-02-12T10:12:52;7.33;;;6.63;;
46589;SDS011;32313;48.722;9.362;2023-02-12T10:15:42;8.53;;;7.73;;
46589;SDS011;32313;48.722;9.362;2023-02-12T10:26:49;10.37;;;9.27;;
46589;SDS011;32313;48.722;9.362;2023-02-12T10:29:21;8.00;;;7.30;;
46589;SDS011;32313;48.722;9.362;2023-02-12T10:31:54;12.47;;;10.80;;
46589;SDS011;32313;48.722;9.362;2023-02-12T10:34:33;16.33;;;13.63;;
46589;SDS011;32313;48.722;9.362;2023-02-12T10:37:02;14.30;;;12.80;;
46589;SDS011;32313;48.722;9.362;2023-02-12T10:39:36;11.67;;;10.57;;
46589;SDS011;32313;48.722;9.362;2023-02-12T10:44:32;10.30;;;9.20;;
46589;SDS011;32313;48.722;9.362;2023-02-12T10:46:58;12.53;;;11.33;;
46589;SDS011;32313;48.722;9.362;2023-02-12T10:49:23;13.50;;;12.20;;
46589;SDS011;32313;48.722;9.362;2023-02-12T10:52:09;17.17;;;15.57;;
46589;SDS011;32313;48.722;9.362;2023-02-12T10:57:22;11.07;;;10.07;;
46589;SDS011;32313;48.722;9.362;2023-02-12T10:59:52;9.27;;;8.47;;
46589;SDS011;32313;48.722;9.362;2023-02-12T11:02:28;9.50;;;8.63;;
46589;SDS011;32313;48.722;9.362;2023-02-12T11:04:56;8.87;;;7.97;;
46589;SDS011;32313;48.722;9.362;2023-02-12T11:07:24;8.30;;;7.50;;
46589;SDS011;32313;48.722;9.362;2023-02-12T11:09:52;8.27;;;7.47;;
46589;SDS011;32313;48.722;9.362;2023-02-12T11:12:31;9.73;;;8.83;;
46589;SDS011;32313;48.722;9.362;2023-02-12T11:15:09;10.23;;;9.23;;
46589;SDS011;32313;48.722;9.362;2023-02-12T11:17:44;9.17;;;8.37;;
46589;SDS011;32313;48.722;9.362;2023-02-12T11:20:23;10.90;;;9.80;;
46589;SDS011;32313;48.722;9.362;2023-02-12T11:22:59;10.83;;;9.30;;
46589;SDS011;32313;48.722;9.362;2023-02-12T11:25:29;10.57;;;9.47;;
46589;SDS011;32313;48.722;9.362;2023-02-12T11:28:11;13.07;;;11.77;;
46589;SDS011;32313;48.722;9.362;2023-02-12T11:30:50;12.00;;;10.87;;
46589;SDS011;32313;48.722;9.362;2023-02-12T11:33:28;10.73;;;9.63;;
46589;SDS011;32313;48.722;9.362;2023-02-12T11:36:16;10.83;;;9.73;;
46589;SDS011;32313;48.722;9.362;2023-02-12T11:38:56;10.93;;;9.93;;
46589;SDS011;32313;48.722;9.362;2023-02-12T11:44:10;10.07;;;9.07;;
46589;SDS011;32313;48.722;9.362;2023-02-12T11:46:45;9.40;;;8.50;;
46589;SDS011;32313;48.722;9.362;2023-02-12T11:49:22;9.83;;;8.83;;
46589;SDS011;32313;48.722;9.362;2023-02-12T11:51:50;8.83;;;7.63;;
46589;SDS011;32313;48.722;9.362;2023-02-12T11:54:24;8.37;;;7.57;;
46589;SDS011;32313;48.722;9.362;2023-02-12T11:56:52;8.70;;;7.90;;
46589;SDS011;32313;48.722;9.362;2023-02-12T11:59:30;8.57;;;7.67;;
46589;SDS011;32313;48.722;9.362;2023-02-12T12:01:58;8.50;;;7.70;;
46589;SDS011;32313;48.722;9.362;2023-02-12T12:04:55;8.37;;;7.57;;
46589;SDS011;32313;48.722;9.362;2023-02-12T12:07:33;8.80;;;7.40;;
46589;SDS011;32313;48.722;9.362;2023-02-12T12:10:04;7.53;;;6.83;;
46589;SDS011;32313;48.722;9.362;2023-02-12T12:12:37;7.53;;;6.83;;
46589;SDS011;32313;48.722;9.362;2023-02-12T12:15:21;8.03;;;7.23;;
46589;SDS011;32313;48.722;9.362;2023-02-12T12:18:45;7.77;;;6.90;;
46589;SDS011;32313;48.722;9.362;2023-02-12T12:21:41;7.30;;;6.60;;
46589;SDS011;32313;48.722;9.362;2023-02-12T12:30:36;6.50;;;6.00;;
46589;SDS011;32313;48.722;9.362;2023-02-12T12:33:42;6.90;;;6.30;;
46589;SDS011;32313;48.722;9.362;2023-02-12T12:38:55;5.77;;;5.30;;
46589;SDS011;32313;48.722;9.362;2023-02-12T12:44:44;5.33;;;4.83;;
46589;SDS011;32313;48.722;9.362;2023-02-12T12:53:30;5.60;;;4.93;;
46589;SDS011;32313;48.722;9.362;2023-02-12T13:09:28;6.63;;;6.03;;
46589;SDS011;32313;48.722;9.362;2023-02-12T13:12:20;6.20;;;5.20;;
46589;SDS011;32313;48.722;9.362;2023-02-12T13:24:21;4.57;;;4.10;;
46589;SDS011;32313;48.722;9.362;2023-02-12T13:26:35;7.03;;;6.33;;
46589;SDS011;32313;48.722;9.362;2023-02-12T13:29:19;12.37;;;8.53;;
46589;SDS011;32313;48.722;9.362;2023-02-12T13:31:50;22.40;;;13.47;;
46589;SDS011;32313;48.722;9.362;2023-02-12T13:34:20;8.60;;;6.97;;
46589;SDS011;32313;48.722;9.362;2023-02-12T13:36:50;19.23;;;12.97;;
46589;SDS011;32313;48.722;9.362;2023-02-12T13:59:03;4.03;;;3.73;;
46589;SDS011;32313;48.722;9.362;2023-02-12T14:04:33;4.27;;;3.97;;
46589;SDS011;32313;48.722;9.362;2023-02-12T14:07:05;4.90;;;4.17;;
46589;SDS011;32313;48.722;9.362;2023-02-12T14:12:10;4.20;;;3.90;;
46589;SDS011;32313;48.722;9.362;2023-02-12T14:15:03;4.40;;;4.00;;
46589;SDS011;32313;48.722;9.362;2023-02-12T14:18:34;4.23;;;3.90;;
46589;SDS011;32313;48.722;9.362;2023-02-12T14:21:38;4.80;;;4.40;;
46589;SDS011;32313;48.722;9.362;2023-02-12T14:23:43;5.03;;;4.63;;
46589;SDS011;32313;48.722;9.362;2023-02-12T14:26:21;5.57;;;5.17;;
46589;SDS011;32313;48.722;9.362;2023-02-12T14:28:58;8.80;;;8.10;;
46589;SDS011;32313;48.722;9.362;2023-02-12T14:36:39;3.80;;;3.47;;
46589;SDS011;32313;48.722;9.362;2023-02-12T14:41:49;3.63;;;3.33;;
46589;SDS011;32313;48.722;9.362;2023-02-12T14:44:36;3.43;;;3.23;;
46589;SDS011;32313;48.722;9.362;2023-02-12T14:47:48;3.50;;;3.20;;
46589;SDS011;32313;48.722;9.362;2023-02-12T14:50:01;3.50;;;3.20;;
46589;SDS011;32313;48.722;9.362;2023-02-12T14:52:37;3.00;;;2.80;;
46589;SDS011;32313;48.722;9.362;2023-02-12T14:55:07;3.33;;;3.03;;
46589;SDS011;32313;48.722;9.362;2023-02-12T14:58:15;4.33;;;3.93;;
46589;SDS011;32313;48.722;9.362;2023-02-12T15:00:44;4.13;;;3.83;;
46589;SDS011;32313;48.722;9.362;2023-02-12T15:05:41;4.30;;;3.90;;
46589;SDS011;32313;48.722;9.362;2023-02-12T15:08:40;6.87;;;6.20;;
46589;SDS011;32313;48.722;9.362;2023-02-12T15:11:11;11.33;;;7.93;;
46589;SDS011;32313;48.722;9.362;2023-02-12T15:22:19;15.13;;;10.47;;
46589;SDS011;32313;48.722;9.362;2023-02-12T15:24:48;10.53;;;8.73;;
46589;SDS011;32313;48.722;9.362;2023-02-12T15:27:14;11.80;;;9.27;;
46589;SDS011;32313;48.722;9.362;2023-02-12T15:29:42;10.50;;;8.47;;
46589;SDS011;32313;48.722;9.362;2023-02-12T15:32:26;18.27;;;13.03;;
46589;SDS011;32313;48.722;9.362;2023-02-12T15:34:54;11.07;;;9.77;;
46589;SDS011;32313;48.722;9.362;2023-02-12T15:37:24;13.00;;;10.80;;
46589;SDS011;32313;48.722;9.362;2023-02-12T15:39:53;9.37;;;8.37;;
46589;SDS011;32313;48.722;9.362;2023-02-12T15:45:06;9.90;;;8.87;;
46589;SDS011;32313;48.722;9.362;2023-02-12T15:47:38;9.77;;;8.77;;
46589;SDS011;32313;48.722;9.362;2023-02-12T15:50:06;13.53;;;10.10;;
46589;SDS011;32313;48.722;9.362;2023-02-12T15:52:40;9.23;;;8.03;;
46589;SDS011;32313;48.722;9.362;2023-02-12T15:55:18;9.37;;;8.37;;
46589;SDS011;32313;48.722;9.362;2023-02-12T15:57:53;15.27;;;12.50;;
46589;SDS011;32313;48.722;9.362;2023-02-12T16:00:24;9.80;;;8.80;;
46589;SDS011;32313;48.722;9.362;2023-02-12T16:03:03;14.23;;;11.27;;
46589;SDS011;32313;48.722;9.362;2023-02-12T16:05:29;13.87;;;12.07;;
46589;SDS011;32313;48.722;9.362;2023-02-12T16:07:56;11.17;;;9.93;;
46589;SDS011;32313;48.722;9.362;2023-02-12T16:10:23;11.90;;;10.50;;
46589;SDS011;32313;48.722;9.362;2023-02-12T16:12:51;11.50;;;10.30;;
46589;SDS011;32313;48.722;9.362;2023-02-12T16:15:25;15.50;;;12.20;;
46589;SDS011;32313;48.722;9.362;2023-02-12T16:17:54;13.90;;;11.50;;
46589;SDS011;32313;48.722;9.362;2023-02-12T16:20:23;12.13;;;10.37;;
46589;SDS011;32313;48.722;9.362;2023-02-12T16:22:53;28.93;;;17.70;;
46589;SDS011;32313;48.722;9.362;2023-02-12T16:25:27;24.17;;;14.00;;
46589;SDS011;32313;48.722;9.362;2023-02-12T16:30:30;36.47;;;17.20;;
46589;SDS011;32313;48.722;9.362;2023-02-12T16:33:30;32.27;;;16.57;;
46589;SDS011;32313;48.722;9.362;2023-02-12T16:43:43;10.33;;;9.43;;
46589;SDS011;32313;48.722;9.362;2023-02-12T16:46:09;11.10;;;10.07;;
46589;SDS011;32313;48.722;9.362;2023-02-12T16:48:37;11.43;;;10.33;;
46589;SDS011;32313;48.722;9.362;2023-02-12T16:51:05;13.70;;;11.47;;
46589;SDS011;32313;48.722;9.362;2023-02-12T16:53:43;15.73;;;11.90;;
46589;SDS011;32313;48.722;9.362;2023-02-12T16:56:15;12.80;;;11.50;;
46589;SDS011;32313;48.722;9.362;2023-02-12T16:58:43;12.30;;;11.00;;
46589;SDS011;32313;48.722;9.362;2023-02-12T17:01:09;15.57;;;11.97;;
46589;SDS011;32313;48.722;9.362;2023-02-12T17:03:42;12.30;;;10.83;;
46589;SDS011;32313;48.722;9.362;2023-02-12T17:06:08;19.27;;;14.43;;
46589;SDS011;32313;48.722;9.362;2023-02-12T17:08:35;18.27;;;15.07;;
46589;SDS011;32313;48.722;9.362;2023-02-12T17:11:01;20.53;;;14.87;;
46589;SDS011;32313;48.722;9.362;2023-02-12T17:13:26;56.63;;;35.30;;
46589;SDS011;32313;48.722;9.362;2023-02-12T17:15:53;42.23;;;26.10;;
46589;SDS011;32313;48.722;9.362;2023-02-12T17:18:21;36.83;;;21.77;;
46589;SDS011;32313;48.722;9.362;2023-02-12T17:20:52;41.27;;;26.57;;
46589;SDS011;32313;48.722;9.362;2023-02-12T17:23:21;50.33;;;30.80;;
46589;SDS011;32313;48.722;9.362;2023-02-12T17:25:48;39.40;;;26.80;;
46589;SDS011;32313;48.722;9.362;2023-02-12T17:28:13;29.77;;;22.70;;
46589;SDS011;32313;48.722;9.362;2023-02-12T17:30:39;23.33;;;17.93;;
46589;SDS011;32313;48.722;9.362;2023-02-12T17:33:05;21.43;;;18.07;;
46589;SDS011;32313;48.722;9.362;2023-02-12T17:35:31;15.10;;;13.50;;
46589;SDS011;32313;48.722;9.362;2023-02-12T17:37:57;16.30;;;14.70;;
46589;SDS011;32313;48.722;9.362;2023-02-12T17:40:23;16.70;;;15.00;;